• Join FlightAware (Why Join?)
  • Login
  • US Flag 
05:59AM EDT


 

Airport Tracker/Info


-or-


 

Live Flight TrackerFlight Track Log ✈ A6-EDY ✈ 05-Apr-2013 ✈ OMDB / DXB - YMML / MEL

Flight Track Log - Related Links

Times and Time Zones

All times are in EDT time to prevent confusion due to time zone crossing. See the A6-EDY flight status page for this flight to view local times or setup timezone preferences in your user account.

Time Position Orientation Groundspeed Altitude Reporting Facility
EDT Latitude Longitude Course Direction KTS MPH feet Rate Location/Type
02:54AM 25.2300 55.4060 294° West 184 212 700  Level FlightAware
02:54AM 25.2240 55.4160 124° Southeast 188 216 1,000 1,200 Climbing FlightAware
02:54AM 25.2170 55.4300 119° Southeast 188 216 1,300 1,620 Climbing FlightAware
02:56AM 25.1400 55.5670 122° Southeast 4,700 1,680 Climbing FlightAware
02:57AM 25.1210 55.6010 122° Southeast 275 316 5,600 1,260 Climbing FlightAware
02:58AM 25.0960 55.6470 121° Southeast 276 318 6,200 2,100 Climbing FlightAware
02:58AM 25.0730 55.6880 122° Southeast 275 316 8,100 3,000 Climbing FlightAware
02:58AM 25.0540 55.7080 136° Southeast 284 327 8,700 1,680 Climbing FlightAware
02:59AM 25.0230 55.7330 144° Southeast 293 337 9,500 1,320 Climbing FlightAware
03:00AM 24.9720 55.7780 141° Southeast 296 341 10,400 600 Climbing FlightAware
03:00AM 24.9360 55.8110 140° Southeast 296 341 10,400  Level FlightAware
03:01AM 24.9010 55.8440 139° Southeast 296 341 10,400 1,980 Level FlightAware
03:02AM 24.8030 55.9200 145° Southeast 390 449 13,100 2,640 Climbing FlightAware
03:03AM 24.7250 55.9960 138° Southeast 403 464 14,800 1,620 Climbing FlightAware
03:04AM 24.5690 56.1570 125° Southeast 432 497 17,700 1,560 Climbing FlightAware
03:05AM 24.5819 56.2174 125° Southeast  Level Estimated
03:05AM 24.4880 56.2610 131° Southeast 444 511 19,200  Level FlightAware
03:06AM 24.4360 56.3270 131° Southeast 455 524 20,000 1,200 Climbing FlightAware
03:07AM 24.3420 56.4460 131° Southeast 469 540 21,400 1,380 Climbing FlightAware
03:08AM 24.2770 56.5330 129° Southeast 478 550 22,600 1,560 Climbing FlightAware
03:08AM 24.2360 56.5960 126° Southeast 476 548 23,500 1,020 Climbing FlightAware
03:09AM 24.1660 56.7030 126° Southeast 476 548 24,200 1,200 Climbing FlightAware
03:10AM 24.0880 56.8180 127° Southeast 489 563 25,700 1,200 Climbing FlightAware
03:11AM 24.0280 56.9080 126° Southeast 497 572 26,200 660 Climbing FlightAware
03:12AM 23.9540 57.0200 126° Southeast 497 572 26,800 720 Climbing FlightAware
03:13AM 23.8950 57.1080 126° Southeast 497 572 27,400 420 Climbing FlightAware
03:13AM 23.8510 57.1780 124° Southeast 497 572 27,400  Level FlightAware
03:14AM 23.8060 57.2480 125° Southeast 497 572 27,400  Level FlightAware
03:15AM 23.7500 57.3350 125° Southeast 497 572 27,400  Level FlightAware
03:16AM 23.7050 57.4050 125° Southeast 497 572 27,400  Level FlightAware
03:16AM 23.6600 57.4750 125° Southeast 497 572 27,400  Level FlightAware
03:19AM 23.4826 57.7409 126° Southeast  Level Estimated
03:20AM 23.4053 57.8563 126° Southeast  Level Estimated
03:21AM 23.3279 57.9716 126° Southeast  Level Estimated
03:22AM 23.2418 58.0842 130° Southeast  Level FlightAware Approximate
03:23AM 23.1555 58.1966 130° Southeast  Level FlightAware Approximate
03:24AM 23.0692 58.3089 130° Southeast  Level FlightAware Approximate
03:25AM 22.9712 58.4066 149° Southeast  Level FlightAware Approximate
03:26AM 22.8563 58.4827 149° Southeast  Level FlightAware Approximate
03:27AM 22.7414 58.5588 149° Southeast  Level FlightAware Approximate
03:28AM 22.6264 58.6347 149° Southeast  Level FlightAware Approximate
03:29AM 22.5115 58.7106 149° Southeast  Level FlightAware Approximate
03:30AM 22.3965 58.7863 149° Southeast  Level FlightAware Approximate
03:31AM 22.2814 58.8618 149° Southeast  Level FlightAware Approximate
03:32AM 22.1663 58.9373 149° Southeast  Level FlightAware Approximate
03:33AM 22.0512 59.0126 149° Southeast  Level FlightAware Approximate
03:34AM 21.9361 59.0878 149° Southeast  Level FlightAware Approximate
03:35AM 21.8209 59.1629 149° Southeast  Level FlightAware Approximate
03:36AM 21.7057 59.2379 149° Southeast  Level FlightAware Approximate
03:37AM 21.5905 59.3128 149° Southeast  Level FlightAware Approximate
03:38AM 21.4752 59.3875 149° Southeast  Level FlightAware Approximate
03:39AM 21.3599 59.4621 149° Southeast  Level FlightAware Approximate
03:40AM 21.2446 59.5366 149° Southeast  Level FlightAware Approximate
03:41AM 21.1292 59.6110 149° Southeast  Level FlightAware Approximate
03:42AM 21.0138 59.6853 149° Southeast  Level FlightAware Approximate
03:43AM 20.8984 59.7594 149° Southeast  Level FlightAware Approximate
03:44AM 20.7829 59.8334 149° Southeast  Level FlightAware Approximate
03:45AM 20.6674 59.9073 149° Southeast  Level FlightAware Approximate
03:46AM 20.5518 59.9811 149° Southeast  Level FlightAware Approximate
03:47AM 20.4362 60.0548 149° Southeast  Level FlightAware Approximate
03:48AM 20.3206 60.1283 149° Southeast  Level FlightAware Approximate
03:49AM 20.2050 60.2018 149° Southeast  Level FlightAware Approximate
03:50AM 20.0893 60.2751 149° Southeast  Level FlightAware Approximate
03:51AM 19.9838 60.3631 138° Southeast  Level FlightAware Approximate
03:52AM 19.8834 60.4585 138° Southeast  Level FlightAware Approximate
03:53AM 19.7830 60.5538 138° Southeast  Level FlightAware Approximate
03:54AM 19.6825 60.6490 138° Southeast  Level FlightAware Approximate
03:55AM 19.5820 60.7440 138° Southeast  Level FlightAware Approximate
03:56AM 19.4815 60.8390 138° Southeast  Level FlightAware Approximate
03:57AM 19.3809 60.9338 138° Southeast  Level FlightAware Approximate
03:58AM 19.2802 61.0285 138° Southeast  Level FlightAware Approximate
03:59AM 19.1795 61.1231 138° Southeast  Level FlightAware Approximate
04:00AM 19.0787 61.2176 138° Southeast  Level FlightAware Approximate
04:01AM 18.9779 61.3119 138° Southeast  Level FlightAware Approximate
04:02AM 18.8771 61.4062 139° Southeast  Level FlightAware Approximate
04:03AM 18.7762 61.5003 139° Southeast  Level FlightAware Approximate
04:04AM 18.6752 61.5943 139° Southeast  Level FlightAware Approximate
04:05AM 18.5742 61.6883 139° Southeast  Level FlightAware Approximate
04:06AM 18.4732 61.7821 139° Southeast  Level FlightAware Approximate
04:07AM 18.3721 61.8758 139° Southeast  Level FlightAware Approximate
04:08AM 18.2709 61.9693 139° Southeast  Level FlightAware Approximate
04:09AM 18.1698 62.0628 139° Southeast  Level FlightAware Approximate
04:10AM 18.0685 62.1562 139° Southeast  Level FlightAware Approximate
04:11AM 17.9673 62.2494 139° Southeast  Level FlightAware Approximate
04:12AM 17.8659 62.3426 139° Southeast  Level FlightAware Approximate
04:13AM 17.7646 62.4356 139° Southeast  Level FlightAware Approximate
04:14AM 17.6632 62.5285 139° Southeast  Level FlightAware Approximate
04:15AM 17.5617 62.6214 139° Southeast  Level FlightAware Approximate
04:16AM 17.4602 62.7141 139° Southeast  Level FlightAware Approximate
04:17AM 17.3587 62.8067 139° Southeast  Level FlightAware Approximate
04:18AM 17.2571 62.8993 139° Southeast  Level FlightAware Approximate
04:19AM 17.1555 62.9917 139° Southeast  Level FlightAware Approximate
04:20AM 17.0539 63.0840 139° Southeast  Level FlightAware Approximate
04:21AM 16.9511 63.1749 140° Southeast  Level FlightAware Approximate
04:22AM 16.8495 63.2629 140° Southeast  Level FlightAware Approximate
04:23AM 16.7480 63.3509 140° Southeast  Level FlightAware Approximate
04:24AM 16.6464 63.4387 140° Southeast  Level FlightAware Approximate
04:25AM 16.5448 63.5265 140° Southeast  Level FlightAware Approximate
04:26AM 16.4431 63.6141 140° Southeast  Level FlightAware Approximate
04:27AM 16.3414 63.7017 140° Southeast  Level FlightAware Approximate
04:28AM 16.2397 63.7892 140° Southeast  Level FlightAware Approximate
04:29AM 16.1379 63.8766 140° Southeast  Level FlightAware Approximate
04:30AM 16.0361 63.9639 141° Southeast  Level FlightAware Approximate
04:31AM 15.9342 64.0511 141° Southeast  Level FlightAware Approximate
04:32AM 15.8323 64.1382 141° Southeast  Level FlightAware Approximate
04:33AM 15.7304 64.2252 141° Southeast  Level FlightAware Approximate
04:34AM 15.6285 64.3122 141° Southeast  Level FlightAware Approximate
04:35AM 15.5265 64.3990 141° Southeast  Level FlightAware Approximate
04:36AM 15.4245 64.4858 141° Southeast  Level FlightAware Approximate
04:37AM 15.3224 64.5725 141° Southeast  Level FlightAware Approximate
04:38AM 15.2203 64.6591 141° Southeast  Level FlightAware Approximate
04:39AM 15.1182 64.7456 141° Southeast  Level FlightAware Approximate
04:40AM 15.0161 64.8320 141° Southeast  Level FlightAware Approximate
04:41AM 14.9139 64.9184 141° Southeast  Level FlightAware Approximate
04:42AM 14.8116 65.0046 141° Southeast  Level FlightAware Approximate
04:43AM 14.7094 65.0908 141° Southeast  Level FlightAware Approximate
04:44AM 14.6071 65.1769 141° Southeast  Level FlightAware Approximate
04:45AM 14.5048 65.2630 141° Southeast  Level FlightAware Approximate
04:46AM 14.4025 65.3489 141° Southeast  Level FlightAware Approximate
04:47AM 14.3001 65.4348 141° Southeast  Level FlightAware Approximate
04:48AM 14.1977 65.5206 141° Southeast  Level FlightAware Approximate
04:49AM 14.0953 65.6063 141° Southeast  Level FlightAware Approximate
04:50AM 13.9928 65.6919 141° Southeast  Level FlightAware Approximate
04:51AM 13.8903 65.7775 141° Southeast  Level FlightAware Approximate
04:52AM 13.7878 65.8630 141° Southeast  Level FlightAware Approximate
04:53AM 13.6853 65.9484 141° Southeast  Level FlightAware Approximate
04:54AM 13.5827 66.0337 141° Southeast  Level FlightAware Approximate
04:55AM 13.4801 66.1190 141° Southeast  Level FlightAware Approximate
04:56AM 13.3774 66.2042 141° Southeast  Level FlightAware Approximate
04:57AM 13.2747 66.2893 141° Southeast  Level FlightAware Approximate
04:58AM 13.1721 66.3743 141° Southeast  Level FlightAware Approximate
04:59AM 13.0693 66.4593 141° Southeast  Level FlightAware Approximate
05:00AM 12.9666 66.5442 141° Southeast  Level FlightAware Approximate
05:01AM 12.8638 66.6290 141° Southeast  Level FlightAware Approximate
05:02AM 12.7610 66.7138 141° Southeast  Level FlightAware Approximate
05:03AM 12.6581 66.7985 141° Southeast  Level FlightAware Approximate
05:04AM 12.5553 66.8831 141° Southeast  Level FlightAware Approximate
05:05AM 12.4524 66.9677 141° Southeast  Level FlightAware Approximate
05:06AM 12.3495 67.0522 141° Southeast  Level FlightAware Approximate
05:07AM 12.2465 67.1366 141° Southeast  Level FlightAware Approximate
05:08AM 12.1436 67.2209 141° Southeast  Level FlightAware Approximate
05:09AM 12.0406 67.3052 141° Southeast  Level FlightAware Approximate
05:10AM 11.9375 67.3895 141° Southeast  Level FlightAware Approximate
05:11AM 11.8345 67.4736 141° Southeast  Level FlightAware Approximate
05:12AM 11.7314 67.5577 141° Southeast  Level FlightAware Approximate
05:13AM 11.6283 67.6418 141° Southeast  Level FlightAware Approximate
05:14AM 11.5252 67.7257 141° Southeast  Level FlightAware Approximate
05:15AM 11.4221 67.8096 141° Southeast  Level FlightAware Approximate
05:16AM 11.3189 67.8935 141° Southeast  Level FlightAware Approximate
05:17AM 11.2157 67.9773 141° Southeast  Level FlightAware Approximate
05:18AM 11.1125 68.0610 141° Southeast  Level FlightAware Approximate
05:19AM 11.0092 68.1447 141° Southeast  Level FlightAware Approximate
05:20AM 10.9060 68.2283 142° Southeast  Level FlightAware Approximate
05:21AM 10.8027 68.3119 142° Southeast  Level FlightAware Approximate
05:22AM 10.6994 68.3953 142° Southeast  Level FlightAware Approximate
05:23AM 10.5960 68.4788 142° Southeast  Level FlightAware Approximate
05:24AM 10.4927 68.5621 142° Southeast  Level FlightAware Approximate
05:25AM 10.3893 68.6455 142° Southeast  Level FlightAware Approximate
05:26AM 10.2859 68.7287 142° Southeast  Level FlightAware Approximate
05:27AM 10.1825 68.8120 142° Southeast  Level FlightAware Approximate
05:28AM 10.0791 68.8951 142° Southeast  Level FlightAware Approximate
05:29AM 9.9756 68.9782 142° Southeast  Level FlightAware Approximate
05:30AM 9.8721 69.0613 142° Southeast  Level FlightAware Approximate
05:31AM 9.7686 69.1443 142° Southeast  Level FlightAware Approximate
05:32AM 9.6651 69.2272 142° Southeast  Level FlightAware Approximate
05:33AM 9.5616 69.3101 142° Southeast  Level FlightAware Approximate
05:34AM 9.4580 69.3930 142° Southeast  Level FlightAware Approximate
05:35AM 9.3544 69.4758 142° Southeast  Level FlightAware Approximate
05:36AM 9.2508 69.5585 142° Southeast  Level FlightAware Approximate
05:37AM 9.1472 69.6412 142° Southeast  Level FlightAware Approximate
05:38AM 9.0436 69.7239 142° Southeast  Level FlightAware Approximate
05:39AM 8.9399 69.8065 142° Southeast  Level FlightAware Approximate
05:40AM 8.8363 69.8890 142° Southeast  Level FlightAware Approximate
05:41AM 8.7326 69.9715 142° Southeast  Level FlightAware Approximate
05:42AM 8.6289 70.0540 142° Southeast  Level FlightAware Approximate
05:43AM 8.5251 70.1364 142° Southeast  Level FlightAware Approximate
05:44AM 8.4214 70.2188 142° Southeast  Level FlightAware Approximate
05:45AM 8.3176 70.3011 142° Southeast  Level FlightAware Approximate
05:46AM 8.2139 70.3834 142° Southeast  Level FlightAware Approximate
05:46AM 7.1400 71.3460 142° Southeast 481 554 33,000  Level FlightAware
05:47AM 8.1101 70.4657 142° Southeast  Level FlightAware Approximate
05:47AM 7.0650 71.4270 133° Southeast 479 551 33,000  Level FlightAware
05:48AM 6.9980 71.5010 132° Southeast 482 555 33,000  Level FlightAware
05:48AM 6.9420 71.5630 132° Southeast 480 552 33,000  Level FlightAware
05:49AM 6.8820 71.6310 132° Southeast 480 552 33,000  Level FlightAware
05:50AM 6.8310 71.6870 133° Southeast 480 552 33,000  Level FlightAware
05:51AM 6.7810 71.7440 131° Southeast 480 552 33,000  Level FlightAware
05:51AM 6.6730 71.8580 134° Southeast 33,000  Level FlightAware
05:52AM 6.5980 71.9420 132° Southeast 484 557 33,000  Level FlightAware
05:53AM 6.5270 72.0190 133° Southeast 33,000  Level FlightAware
05:54AM 6.4680 72.0840 132° Southeast 482 555 33,000  Level FlightAware
05:54AM 6.4070 72.1500 133° Southeast 477 549 33,000 120 Level FlightAware
05:55AM 6.3400 72.2240 132° Southeast 483 556 33,200 480 Climbing FlightAware
05:56AM 6.2750 72.2940 133° Southeast 481 554 33,700 1,320 Climbing FlightAware
05:56AM 6.2120 72.3640 132° Southeast 462 532 35,000 840 Climbing FlightAware
05:57AM 6.1410 72.4410 133° Southeast 463 533 35,000  Level FlightAware
05:58AM 6.0910 72.4950 133° Southeast 464 534 35,000  Level FlightAware
05:59AM 6.0350 72.5600 131° Southeast 464 534 35,000  Level FlightAware
05:59AM 5.9480 72.6520 134° Southeast 463 533 35,000  Level FlightAware
06:00AM 5.8940 72.7110 133° Southeast 462 532 35,000  Level FlightAware
06:01AM 5.8230 72.7880 133° Southeast 461 531 35,000  Level FlightAware
06:01AM 5.7800 72.8360 132° Southeast 461 531 35,000  Level FlightAware
06:02AM 5.7090 72.9120 133° Southeast 461 531 35,000  Level FlightAware
06:03AM 5.6410 72.9870 132° Southeast 462 532 35,000  Level FlightAware
06:04AM 5.5820 73.0520 132° Southeast 463 533 35,000  Level FlightAware
06:04AM 5.5160 73.1230 133° Southeast 461 531 35,000  Level FlightAware
06:05AM 5.4570 73.1870 133° Southeast 461 531 35,000  Level FlightAware
06:06AM 5.3990 73.2510 132° Southeast 462 532 35,000  Level FlightAware
06:06AM 5.3310 73.3240 133° Southeast 463 533 35,000  Level FlightAware
06:07AM 5.2740 73.3870 132° Southeast 464 534 35,000  Level FlightAware
06:08AM 5.2060 73.4610 133° Southeast 465 535 35,000  Level FlightAware
06:09AM 5.1480 73.5240 133° Southeast 465 535 35,000  Level FlightAware
06:09AM 5.0890 73.5880 133° Southeast 464 534 35,000  Level FlightAware
06:10AM 5.0220 73.6610 133° Southeast 465 535 35,000  Level FlightAware
06:11AM 4.9640 73.7240 133° Southeast 472 543 35,000  Level FlightAware
06:11AM 4.8980 73.7950 133° Southeast 472 543 35,000  Level FlightAware
06:12AM 4.8360 73.8630 132° Southeast 466 536 35,000  Level FlightAware
06:13AM 4.7760 73.9280 133° Southeast 471 542 35,000  Level FlightAware
06:13AM 4.7110 73.9980 133° Southeast 471 542 35,000  Level FlightAware
06:14AM 4.6510 74.0630 133° Southeast 465 535 35,000  Level FlightAware
06:15AM 4.5970 74.1210 133° Southeast 465 535 35,000  Level FlightAware
06:16AM 4.5230 74.2020 133° Southeast 472 543 35,000  Level FlightAware
06:16AM 4.4710 74.2590 132° Southeast 471 542 35,000  Level FlightAware
06:17AM 4.3990 74.3360 133° Southeast 463 533 35,000  Level FlightAware
06:18AM 4.3420 74.3990 132° Southeast 461 531 35,000  Level FlightAware
06:18AM 4.2830 74.4620 133° Southeast 458 527 35,000  Level FlightAware
06:19AM 4.2220 74.5290 132° Southeast 457 526 35,000  Level FlightAware
06:20AM 4.1580 74.5980 133° Southeast 456 525 35,000  Level FlightAware
06:20AM 4.0930 74.6690 133° Southeast 457 526 35,000  Level FlightAware
06:21AM 4.0400 74.7250 133° Southeast 459 528 35,000  Level FlightAware
06:22AM 3.9730 74.7980 133° Southeast 460 529 35,000  Level FlightAware
06:23AM 3.9100 74.8660 133° Southeast 460 529 35,000  Level FlightAware
06:23AM 3.8380 74.9470 132° Southeast 461 531 35,000  Level FlightAware
06:24AM 3.7620 75.0260 134° Southeast 459 528 35,000  Level FlightAware
06:25AM 3.6840 75.1100 133° Southeast 466 536 35,000  Level FlightAware
06:26AM 3.6200 75.1800 132° Southeast 461 531 35,000  Level FlightAware
06:26AM 3.5750 75.2280 133° Southeast 462 532 35,000  Level FlightAware
06:27AM 3.5090 75.2990 133° Southeast 463 533 35,000  Level FlightAware
06:28AM 3.4390 75.3750 133° Southeast 469 540 35,000  Level FlightAware
06:29AM 3.3770 75.4420 133° Southeast 462 532 35,000  Level FlightAware
06:29AM 3.3150 75.5090 133° Southeast 461 531 35,000  Level FlightAware
06:30AM 3.2360 75.5940 133° Southeast 459 528 35,000  Level FlightAware
06:31AM 3.1680 75.6670 133° Southeast 459 528 35,000  Level FlightAware
06:32AM 3.1240 75.7180 131° Southeast 459 528 35,000  Level FlightAware
06:32AM 3.0770 75.7720 131° Southeast 459 528 35,000  Level FlightAware
06:33AM 2.9860 75.8640 135° Southeast 477 549 35,000  Level FlightAware
06:34AM 2.9360 75.9200 132° Southeast 477 549 35,000  Level FlightAware
06:34AM 2.8730 75.9860 134° Southeast 477 549 35,000  Level FlightAware
06:35AM 2.7910 76.0740 133° Southeast 477 549 35,000  Level FlightAware
06:36AM 2.7470 76.1250 131° Southeast 477 549 35,000  Level FlightAware
06:36AM 2.7100 76.1680 131° Southeast 477 549 35,000  Level FlightAware
06:37AM 2.6610 76.2240 131° Southeast 477 549 35,000  Level FlightAware
06:38AM 2.5990 76.2950 131° Southeast 477 549 35,000  Level FlightAware
06:38AM 2.5500 76.3520 131° Southeast 477 549 35,000  Level FlightAware
06:39AM 2.5010 76.4080 131° Southeast 477 549 35,000  Level FlightAware
06:40AM 2.3520 76.5480 137° Southeast 481 554 35,000  Level FlightAware
06:41AM 2.2870 76.6180 133° Southeast 480 552 35,000  Level FlightAware
06:41AM 2.2370 76.6740 132° Southeast 480 552 35,000  Level FlightAware
06:44AM 2.0402 76.8753 134° Southeast  Level FlightAware Approximate
06:45AM 1.9479 76.9696 134° Southeast  Level FlightAware Approximate
06:46AM 1.8556 77.0639 134° Southeast  Level FlightAware Approximate
06:47AM 1.7633 77.1582 134° Southeast  Level FlightAware Approximate
06:48AM 1.6710 77.2525 134° Southeast  Level FlightAware Approximate
06:49AM 1.5787 77.3468 134° Southeast  Level FlightAware Approximate
06:50AM 1.4864 77.4410 134° Southeast  Level FlightAware Approximate
06:51AM 1.3941 77.5353 134° Southeast  Level FlightAware Approximate
06:52AM 1.3018 77.6296 134° Southeast  Level FlightAware Approximate
06:53AM 1.2095 77.7238 134° Southeast  Level FlightAware Approximate
06:54AM 1.1172 77.8181 134° Southeast  Level FlightAware Approximate
06:55AM 1.0249 77.9123 134° Southeast  Level FlightAware Approximate
06:56AM 0.9326 78.0066 134° Southeast  Level FlightAware Approximate
06:57AM 0.8402 78.1008 134° Southeast  Level FlightAware Approximate
06:58AM 0.7479 78.1950 134° Southeast  Level FlightAware Approximate
06:59AM 0.6556 78.2892 134° Southeast  Level FlightAware Approximate
07:00AM 0.5632 78.3835 134° Southeast  Level FlightAware Approximate
07:01AM 0.4709 78.4777 134° Southeast  Level FlightAware Approximate
07:02AM 0.3786 78.5719 134° Southeast  Level FlightAware Approximate
07:03AM 0.2862 78.6661 134° Southeast  Level FlightAware Approximate
07:04AM 0.1939 78.7603 134° Southeast  Level FlightAware Approximate
07:05AM 0.1016 78.8545 134° Southeast  Level FlightAware Approximate
07:06AM 0.0066 78.9514 134° Southeast  Level FlightAware Approximate
07:07AM -0.0883 79.0483 134° Southeast  Level FlightAware Approximate
07:08AM -0.1833 79.1451 134° Southeast  Level FlightAware Approximate
07:09AM -0.2782 79.2420 134° Southeast  Level FlightAware Approximate
07:10AM -0.3732 79.3389 134° Southeast  Level FlightAware Approximate
07:11AM -0.4681 79.4358 134° Southeast  Level FlightAware Approximate
07:12AM -0.5631 79.5327 134° Southeast  Level FlightAware Approximate
07:13AM -0.6580 79.6296 134° Southeast  Level FlightAware Approximate
07:14AM -0.7530 79.7265 134° Southeast  Level FlightAware Approximate
07:15AM -0.8479 79.8234 134° Southeast  Level FlightAware Approximate
07:16AM -0.9428 79.9203 134° Southeast  Level FlightAware Approximate
07:17AM -1.0378 80.0172 134° Southeast  Level FlightAware Approximate
07:18AM -1.1327 80.1141 134° Southeast  Level FlightAware Approximate
07:19AM -1.2276 80.2110 134° Southeast  Level FlightAware Approximate
07:20AM -1.3226 80.3079 134° Southeast  Level FlightAware Approximate
07:21AM -1.4175 80.4049 134° Southeast  Level FlightAware Approximate
07:22AM -1.5124 80.5018 134° Southeast  Level FlightAware Approximate
07:23AM -1.6073 80.5987 134° Southeast  Level FlightAware Approximate
07:24AM -1.7022 80.6957 134° Southeast  Level FlightAware Approximate
07:25AM -1.7972 80.7927 134° Southeast  Level FlightAware Approximate
07:26AM -1.8921 80.8897 134° Southeast  Level FlightAware Approximate
07:27AM -1.9869 80.9866 134° Southeast  Level FlightAware Approximate
07:28AM -2.0950 81.0631 146° Southeast  Level FlightAware Approximate
07:29AM -2.2056 81.1366 146° Southeast  Level FlightAware Approximate
07:30AM -2.3162 81.2101 146° Southeast  Level FlightAware Approximate
07:31AM -2.4268 81.2837 146° Southeast  Level FlightAware Approximate
07:32AM -2.5373 81.3572 146° Southeast  Level FlightAware Approximate
07:33AM -2.6479 81.4307 146° Southeast  Level FlightAware Approximate
07:34AM -2.7585 81.5043 146° Southeast  Level FlightAware Approximate
07:35AM -2.8690 81.5778 146° Southeast  Level FlightAware Approximate
07:36AM -2.9796 81.6514 146° Southeast  Level FlightAware Approximate
07:37AM -3.0901 81.7250 146° Southeast  Level FlightAware Approximate
07:38AM -3.2006 81.7986 146° Southeast  Level FlightAware Approximate
07:39AM -3.3112 81.8722 146° Southeast  Level FlightAware Approximate
07:40AM -3.4217 81.9459 146° Southeast  Level FlightAware Approximate
07:41AM -3.5322 82.0195 146° Southeast  Level FlightAware Approximate
07:42AM -3.6428 82.0932 146° Southeast  Level FlightAware Approximate
07:43AM -3.7533 82.1669 146° Southeast  Level FlightAware Approximate
07:44AM -3.8638 82.2406 146° Southeast  Level FlightAware Approximate
07:45AM -3.9743 82.3143 146° Southeast  Level FlightAware Approximate
07:46AM -4.0848 82.3881 146° Southeast  Level FlightAware Approximate
07:47AM -4.1953 82.4619 146° Southeast  Level FlightAware Approximate
07:48AM -4.3057 82.5356 146° Southeast  Level FlightAware Approximate
07:49AM -4.4162 82.6095 146° Southeast  Level FlightAware Approximate
07:50AM -4.5267 82.6833 146° Southeast  Level FlightAware Approximate
07:51AM -4.6371 82.7572 146° Southeast  Level FlightAware Approximate
07:52AM -4.7476 82.8310 146° Southeast  Level FlightAware Approximate
07:53AM -4.8580 82.9050 146° Southeast  Level FlightAware Approximate
07:54AM -4.9685 82.9789 146° Southeast  Level FlightAware Approximate
07:55AM -5.0757 83.0573 143° Southeast  Level FlightAware Approximate
07:56AM -5.1842 83.1393 143° Southeast  Level FlightAware Approximate
07:57AM -5.2927 83.2214 143° Southeast  Level FlightAware Approximate
07:58AM -5.4012 83.3035 143° Southeast  Level FlightAware Approximate
07:59AM -5.5097 83.3856 143° Southeast  Level FlightAware Approximate
08:00AM -5.6182 83.4678 143° Southeast  Level FlightAware Approximate
08:01AM -5.7266 83.5499 143° Southeast  Level FlightAware Approximate
08:02AM -5.8350 83.6322 143° Southeast  Level FlightAware Approximate
08:03AM -5.9434 83.7144 143° Southeast  Level FlightAware Approximate
08:04AM -6.0518 83.7967 143° Southeast  Level FlightAware Approximate
08:05AM -6.1603 83.8790 143° Southeast  Level FlightAware Approximate
08:06AM -6.2686 83.9614 143° Southeast  Level FlightAware Approximate
08:07AM -6.3770 84.0437 143° Southeast  Level FlightAware Approximate
08:08AM -6.4854 84.1262 143° Southeast  Level FlightAware Approximate
08:09AM -6.5937 84.2086 143° Southeast  Level FlightAware Approximate
08:10AM -6.7020 84.2911 143° Southeast  Level FlightAware Approximate
08:11AM -6.8103 84.3736 143° Southeast  Level FlightAware Approximate
08:12AM -6.9187 84.4562 143° Southeast  Level FlightAware Approximate
08:13AM -7.0269 84.5388 143° Southeast  Level FlightAware Approximate
08:14AM -7.1352 84.6214 143° Southeast  Level FlightAware Approximate
08:15AM -7.2435 84.7041 143° Southeast  Level FlightAware Approximate
08:16AM -7.3517 84.7868 143° Southeast  Level FlightAware Approximate
08:17AM -7.4599 84.8696 143° Southeast  Level FlightAware Approximate
08:18AM -7.5682 84.9524 143° Southeast  Level FlightAware Approximate
08:19AM -7.6764 85.0352 143° Southeast  Level FlightAware Approximate
08:20AM -7.7845 85.1181 143° Southeast  Level FlightAware Approximate
08:21AM -7.8927 85.2010 143° Southeast  Level FlightAware Approximate
08:22AM -7.9980 85.2818 143° Southeast  Level FlightAware Approximate
08:23AM -8.1033 85.3626 143° Southeast  Level FlightAware Approximate
08:24AM -8.2086 85.4435 143° Southeast  Level FlightAware Approximate
08:25AM -8.3168 85.5267 143° Southeast  Level FlightAware Approximate
08:26AM -8.4250 85.6100 143° Southeast  Level FlightAware Approximate
08:27AM -8.5332 85.6933 143° Southeast  Level FlightAware Approximate
08:28AM -8.6414 85.7766 143° Southeast  Level FlightAware Approximate
08:29AM -8.7496 85.8600 143° Southeast  Level FlightAware Approximate
08:30AM -8.8577 85.9435 143° Southeast  Level FlightAware Approximate
08:31AM -8.9659 86.0270 143° Southeast  Level FlightAware Approximate
08:32AM -9.0740 86.1105 143° Southeast  Level FlightAware Approximate
08:33AM -9.1821 86.1941 143° Southeast  Level FlightAware Approximate
08:34AM -9.2902 86.2777 143° Southeast  Level FlightAware Approximate
08:35AM -9.3982 86.3614 143° Southeast  Level FlightAware Approximate
08:36AM -9.5063 86.4452 143° Southeast  Level FlightAware Approximate
08:37AM -9.6143 86.5290 143° Southeast  Level FlightAware Approximate
08:38AM -9.7223 86.6128 143° Southeast  Level FlightAware Approximate
08:39AM -9.8303 86.6967 143° Southeast  Level FlightAware Approximate
08:40AM -9.9382 86.7807 143° Southeast  Level FlightAware Approximate
08:41AM -10.0462 86.8647 143° Southeast  Level FlightAware Approximate
08:42AM -10.1541 86.9488 143° Southeast  Level FlightAware Approximate
08:43AM -10.2620 87.0329 143° Southeast  Level FlightAware Approximate
08:44AM -10.3698 87.1171 142° Southeast  Level FlightAware Approximate
08:45AM -10.4777 87.2014 142° Southeast  Level FlightAware Approximate
08:46AM -10.5855 87.2857 142° Southeast  Level FlightAware Approximate
08:47AM -10.6933 87.3701 142° Southeast  Level FlightAware Approximate
08:48AM -10.8011 87.4545 142° Southeast  Level FlightAware Approximate
08:49AM -10.9089 87.5390 142° Southeast  Level FlightAware Approximate
08:50AM -11.0166 87.6235 142° Southeast  Level FlightAware Approximate
08:51AM -11.1243 87.7081 142° Southeast  Level FlightAware Approximate
08:52AM -11.2320 87.7928 142° Southeast  Level FlightAware Approximate
08:53AM -11.3397 87.8775 142° Southeast  Level FlightAware Approximate
08:54AM -11.4473 87.9623 142° Southeast  Level FlightAware Approximate
08:55AM -11.5549 88.0472 142° Southeast  Level FlightAware Approximate
08:56AM -11.6625 88.1321 142° Southeast  Level FlightAware Approximate
08:57AM -11.7701 88.2171 142° Southeast  Level FlightAware Approximate
08:58AM -11.8776 88.3022 142° Southeast  Level FlightAware Approximate
08:59AM -11.9851 88.3873 142° Southeast  Level FlightAware Approximate
09:00AM -12.0926 88.4725 142° Southeast  Level FlightAware Approximate
09:01AM -12.2001 88.5578 142° Southeast  Level FlightAware Approximate
09:02AM -12.3075 88.6431 142° Southeast  Level FlightAware Approximate
09:03AM -12.4149 88.7285 142° Southeast  Level FlightAware Approximate
09:04AM -12.5223 88.8140 142° Southeast  Level FlightAware Approximate
09:05AM -12.6297 88.8995 142° Southeast  Level FlightAware Approximate
09:06AM -12.7370 88.9852 142° Southeast  Level FlightAware Approximate
09:07AM -12.8443 89.0708 142° Southeast  Level FlightAware Approximate
09:08AM -12.9516 89.1566 142° Southeast  Level FlightAware Approximate
09:09AM -13.0588 89.2424 142° Southeast  Level FlightAware Approximate
09:10AM -13.1661 89.3283 142° Southeast  Level FlightAware Approximate
09:11AM -13.2732 89.4143 142° Southeast  Level FlightAware Approximate
09:12AM -13.3804 89.5004 142° Southeast  Level FlightAware Approximate
09:13AM -13.4875 89.5865 142° Southeast  Level FlightAware Approximate
09:14AM -13.5917 89.6704 142° Southeast  Level FlightAware Approximate
09:15AM -13.6958 89.7543 142° Southeast  Level FlightAware Approximate
09:16AM -13.7999 89.8383 142° Southeast  Level FlightAware Approximate
09:17AM -13.9039 89.9223 142° Southeast  Level FlightAware Approximate
09:18AM -14.0074 90.0071 137° Southeast  Level FlightAware Approximate
09:19AM -14.1039 90.1003 137° Southeast  Level FlightAware Approximate
09:20AM -14.2004 90.1936 137° Southeast  Level FlightAware Approximate
09:21AM -14.2969 90.2869 137° Southeast  Level FlightAware Approximate
09:22AM -14.3933 90.3804 137° Southeast  Level FlightAware Approximate
09:23AM -14.4896 90.4739 137° Southeast  Level FlightAware Approximate
09:24AM -14.5860 90.5675 137° Southeast  Level FlightAware Approximate
09:25AM -14.6823 90.6611 137° Southeast  Level FlightAware Approximate
09:26AM -14.7785 90.7549 137° Southeast  Level FlightAware Approximate
09:27AM -14.8748 90.8487 137° Southeast  Level FlightAware Approximate
09:28AM -14.9710 90.9427 137° Southeast  Level FlightAware Approximate
09:29AM -15.0671 91.0367 137° Southeast  Level FlightAware Approximate
09:30AM -15.1632 91.1308 137° Southeast  Level FlightAware Approximate
09:31AM -15.2593 91.2250 137° Southeast  Level FlightAware Approximate
09:32AM -15.3553 91.3192 137° Southeast  Level FlightAware Approximate
09:33AM -15.4513 91.4136 137° Southeast  Level FlightAware Approximate
09:34AM -15.5473 91.5080 137° Southeast  Level FlightAware Approximate
09:35AM -15.6432 91.6025 137° Southeast  Level FlightAware Approximate
09:36AM -15.7390 91.6971 136° Southeast  Level FlightAware Approximate
09:37AM -15.8349 91.7918 136° Southeast  Level FlightAware Approximate
09:38AM -15.9307 91.8866 136° Southeast  Level FlightAware Approximate
09:39AM -16.0264 91.9815 136° Southeast  Level FlightAware Approximate
09:40AM -16.1221 92.0765 136° Southeast  Level FlightAware Approximate
09:41AM -16.2178 92.1716 136° Southeast  Level FlightAware Approximate
09:42AM -16.3134 92.2667 136° Southeast  Level FlightAware Approximate
09:43AM -16.4090 92.3620 136° Southeast  Level FlightAware Approximate
09:44AM -16.5045 92.4573 136° Southeast  Level FlightAware Approximate
09:45AM -16.6000 92.5528 136° Southeast  Level FlightAware Approximate
09:46AM -16.6955 92.6483 136° Southeast  Level FlightAware Approximate
09:47AM -16.7909 92.7439 136° Southeast  Level FlightAware Approximate
09:48AM -16.8862 92.8397 136° Southeast  Level FlightAware Approximate
09:49AM -16.9816 92.9355 136° Southeast  Level FlightAware Approximate
09:50AM -17.0768 93.0314 136° Southeast  Level FlightAware Approximate
09:51AM -17.1721 93.1274 136° Southeast  Level FlightAware Approximate
09:52AM -17.2672 93.2235 136° Southeast  Level FlightAware Approximate
09:53AM -17.3624 93.3198 136° Southeast  Level FlightAware Approximate
09:54AM -17.4575 93.4161 136° Southeast  Level FlightAware Approximate
09:55AM -17.5525 93.5125 136° Southeast  Level FlightAware Approximate
09:56AM -17.6475 93.6090 136° Southeast  Level FlightAware Approximate
09:57AM -17.7425 93.7056 136° Southeast  Level FlightAware Approximate
09:58AM -17.8374 93.8024 136° Southeast  Level FlightAware Approximate
09:59AM -17.9322 93.8992 136° Southeast  Level FlightAware Approximate
10:00AM -18.0270 93.9961 136° Southeast  Level FlightAware Approximate
10:01AM -18.1218 94.0931 136° Southeast  Level FlightAware Approximate
10:02AM -18.2165 94.1903 136° Southeast  Level FlightAware Approximate
10:03AM -18.3111 94.2875 136° Southeast  Level FlightAware Approximate
10:04AM -18.4058 94.3849 136° Southeast  Level FlightAware Approximate
10:05AM -18.5003 94.4824 136° Southeast  Level FlightAware Approximate
10:06AM -18.5948 94.5799 136° Southeast  Level FlightAware Approximate
10:07AM -18.6893 94.6776 136° Southeast  Level FlightAware Approximate
10:08AM -18.7837 94.7754 136° Southeast  Level FlightAware Approximate
10:09AM -18.8781 94.8733 136° Southeast  Level FlightAware Approximate
10:10AM -18.9724 94.9713 136° Southeast  Level FlightAware Approximate
10:11AM -19.0588 95.0769 129° Southeast  Level FlightAware Approximate
10:12AM -19.1420 95.1857 129° Southeast  Level FlightAware Approximate
10:13AM -19.2251 95.2946 129° Southeast  Level FlightAware Approximate
10:14AM -19.3081 95.4036 129° Southeast  Level FlightAware Approximate
10:15AM -19.3911 95.5128 129° Southeast  Level FlightAware Approximate
10:16AM -19.4740 95.6221 129° Southeast  Level FlightAware Approximate
10:17AM -19.5568 95.7314 129° Southeast  Level FlightAware Approximate
10:18AM -19.6396 95.8409 129° Southeast  Level FlightAware Approximate
10:19AM -19.7223 95.9505 129° Southeast  Level FlightAware Approximate
10:20AM -19.8049 96.0602 129° Southeast  Level FlightAware Approximate
10:21AM -19.8875 96.1700 129° Southeast  Level FlightAware Approximate
10:22AM -19.9700 96.2800 129° Southeast  Level FlightAware Approximate
10:23AM -20.0524 96.3900 129° Southeast  Level FlightAware Approximate
10:24AM -20.1348 96.5002 129° Southeast  Level FlightAware Approximate
10:25AM -20.2171 96.6105 129° Southeast  Level FlightAware Approximate
10:26AM -20.2993 96.7209 128° Southeast  Level FlightAware Approximate
10:27AM -20.3815 96.8314 128° Southeast  Level FlightAware Approximate
10:28AM -20.4636 96.9420 128° Southeast  Level FlightAware Approximate
10:29AM -20.5456 97.0528 128° Southeast  Level FlightAware Approximate
10:30AM -20.6275 97.1637 128° Southeast  Level FlightAware Approximate
10:31AM -20.7094 97.2747 128° Southeast  Level FlightAware Approximate
10:32AM -20.7912 97.3858 128° Southeast  Level FlightAware Approximate
10:33AM -20.8729 97.4970 128° Southeast  Level FlightAware Approximate
10:34AM -20.9546 97.6083 128° Southeast  Level FlightAware Approximate
10:35AM -21.0362 97.7198 128° Southeast  Level FlightAware Approximate
10:36AM -21.1177 97.8314 128° Southeast  Level FlightAware Approximate
10:37AM -21.2015 97.9463 128° Southeast  Level FlightAware Approximate
10:38AM -21.2852 98.0613 128° Southeast  Level FlightAware Approximate
10:39AM -21.3688 98.1765 128° Southeast  Level FlightAware Approximate
10:40AM -21.4523 98.2918 128° Southeast  Level FlightAware Approximate
10:41AM -21.5357 98.4072 128° Southeast  Level FlightAware Approximate
10:42AM -21.6191 98.5228 128° Southeast  Level FlightAware Approximate
10:43AM -21.7024 98.6385 128° Southeast  Level FlightAware Approximate
10:44AM -21.7856 98.7543 128° Southeast  Level FlightAware Approximate
10:45AM -21.8687 98.8702 128° Southeast  Level FlightAware Approximate
10:46AM -21.9517 98.9863 128° Southeast  Level FlightAware Approximate
10:47AM -22.0347 99.1026 128° Southeast  Level FlightAware Approximate
10:48AM -22.1176 99.2189 128° Southeast  Level FlightAware Approximate
10:49AM -22.2004 99.3354 128° Southeast  Level FlightAware Approximate
10:50AM -22.2831 99.4521 127° Southeast  Level FlightAware Approximate
10:51AM -22.3657 99.5688 127° Southeast  Level FlightAware Approximate
10:52AM -22.4483 99.6858 127° Southeast  Level FlightAware Approximate
10:53AM -22.5307 99.8028 127° Southeast  Level FlightAware Approximate
10:54AM -22.6131 99.9200 127° Southeast  Level FlightAware Approximate
10:55AM -22.6954 100.0373 127° Southeast  Level FlightAware Approximate
10:56AM -22.7776 100.1548 127° Southeast  Level FlightAware Approximate
10:57AM -22.8597 100.2724 127° Southeast  Level FlightAware Approximate
10:58AM -22.9418 100.3902 127° Southeast  Level FlightAware Approximate
10:59AM -23.0237 100.5081 127° Southeast  Level FlightAware Approximate
11:00AM -23.1056 100.6261 127° Southeast  Level FlightAware Approximate
11:01AM -23.1873 100.7443 127° Southeast  Level FlightAware Approximate
11:02AM -23.2690 100.8626 127° Southeast  Level FlightAware Approximate
11:03AM -23.3506 100.9811 127° Southeast  Level FlightAware Approximate
11:04AM -23.4321 101.0997 127° Southeast  Level FlightAware Approximate
11:05AM -23.5135 101.2185 127° Southeast  Level FlightAware Approximate
11:06AM -23.5949 101.3374 127° Southeast  Level FlightAware Approximate
11:07AM -23.6763 101.4568 127° Southeast  Level FlightAware Approximate
11:08AM -23.7577 101.5763 127° Southeast  Level FlightAware Approximate
11:09AM -23.8389 101.6960 127° Southeast  Level FlightAware Approximate
11:10AM -23.9201 101.8158 127° Southeast  Level FlightAware Approximate
11:11AM -24.0012 101.9358 127° Southeast  Level FlightAware Approximate
11:12AM -24.0821 102.0559 126° Southeast  Level FlightAware Approximate
11:13AM -24.1630 102.1762 126° Southeast  Level FlightAware Approximate
11:14AM -24.2437 102.2965 126° Southeast  Level FlightAware Approximate
11:15AM -24.3243 102.4169 126° Southeast  Level FlightAware Approximate
11:16AM -24.4048 102.5375 126° Southeast  Level FlightAware Approximate
11:17AM -24.4852 102.6582 126° Southeast  Level FlightAware Approximate
11:18AM -24.5655 102.7791 126° Southeast  Level FlightAware Approximate
11:19AM -24.6457 102.9001 126° Southeast  Level FlightAware Approximate
11:20AM -24.7258 103.0213 126° Southeast  Level FlightAware Approximate
11:21AM -24.8059 103.1427 126° Southeast  Level FlightAware Approximate
11:22AM -24.8858 103.2642 126° Southeast  Level FlightAware Approximate
11:23AM -24.9656 103.3858 126° Southeast  Level FlightAware Approximate
11:24AM -25.0453 103.5077 126° Southeast  Level FlightAware Approximate
11:25AM -25.1250 103.6296 126° Southeast  Level FlightAware Approximate
11:26AM -25.2045 103.7518 126° Southeast  Level FlightAware Approximate
11:27AM -25.2839 103.8741 126° Southeast  Level FlightAware Approximate
11:28AM -25.3632 103.9966 126° Southeast  Level FlightAware Approximate
11:29AM -25.4424 104.1192 126° Southeast  Level FlightAware Approximate
11:30AM -25.5215 104.2420 126° Southeast  Level FlightAware Approximate
11:31AM -25.6006 104.3649 125° Southeast  Level FlightAware Approximate
11:32AM -25.6795 104.4880 125° Southeast  Level FlightAware Approximate
11:33AM -25.7583 104.6113 125° Southeast  Level FlightAware Approximate
11:34AM -25.8370 104.7347 125° Southeast  Level FlightAware Approximate
11:35AM -25.9156 104.8583 125° Southeast  Level FlightAware Approximate
11:36AM -25.9941 104.9821 125° Southeast  Level FlightAware Approximate
11:37AM -26.0725 105.1060 125° Southeast  Level FlightAware Approximate
11:38AM -26.1507 105.2301 125° Southeast  Level FlightAware Approximate
11:39AM -26.2289 105.3543 125° Southeast  Level FlightAware Approximate
11:40AM -26.3070 105.4788 125° Southeast  Level FlightAware Approximate
11:41AM -26.3850 105.6034 125° Southeast  Level FlightAware Approximate
11:42AM -26.4628 105.7281 125° Southeast  Level FlightAware Approximate
11:43AM -26.5406 105.8531 125° Southeast  Level FlightAware Approximate
11:44AM -26.6182 105.9782 125° Southeast  Level FlightAware Approximate
11:45AM -26.6957 106.1034 125° Southeast  Level FlightAware Approximate
11:46AM -26.7731 106.2289 125° Southeast  Level FlightAware Approximate
11:47AM -26.8505 106.3545 125° Southeast  Level FlightAware Approximate
11:48AM -26.9277 106.4803 125° Southeast  Level FlightAware Approximate
11:49AM -27.0047 106.6062 125° Southeast  Level FlightAware Approximate
11:50AM -27.0817 106.7324 124° Southeast  Level FlightAware Approximate
11:51AM -27.1586 106.8587 124° Southeast  Level FlightAware Approximate
11:52AM -27.2353 106.9851 124° Southeast  Level FlightAware Approximate
11:53AM -27.3120 107.1118 124° Southeast  Level FlightAware Approximate
11:54AM -27.3885 107.2386 124° Southeast  Level FlightAware Approximate
11:55AM -27.4649 107.3656 124° Southeast  Level FlightAware Approximate
11:56AM -27.5412 107.4928 124° Southeast  Level FlightAware Approximate
11:57AM -27.6173 107.6201 124° Southeast  Level FlightAware Approximate
11:58AM -27.6934 107.7477 124° Southeast  Level FlightAware Approximate
11:59AM -27.7693 107.8754 124° Southeast  Level FlightAware Approximate
12:00PM -27.8451 108.0033 124° Southeast  Level FlightAware Approximate
12:01PM -27.9208 108.1313 124° Southeast  Level FlightAware Approximate
12:02PM -27.9964 108.2596 124° Southeast  Level FlightAware Approximate
12:03PM -28.0719 108.3880 124° Southeast  Level FlightAware Approximate
12:04PM -28.1472 108.5166 124° Southeast  Level FlightAware Approximate
12:05PM -28.2225 108.6454 124° Southeast  Level FlightAware Approximate
12:06PM -28.2976 108.7744 124° Southeast  Level FlightAware Approximate
12:07PM -28.3725 108.9035 123° Southeast  Level FlightAware Approximate
12:08PM -28.4474 109.0329 123° Southeast  Level FlightAware Approximate
12:09PM -28.5221 109.1624 123° Southeast  Level FlightAware Approximate
12:10PM -28.5968 109.2921 123° Southeast  Level FlightAware Approximate
12:11PM -28.6712 109.4220 123° Southeast  Level FlightAware Approximate
12:12PM -28.7456 109.5520 123° Southeast  Level FlightAware Approximate
12:12PM -29.9822 111.5247 123° Southeast 548 631 40,000  Level Aus ATC (RADAR)
12:12PM -29.9590 111.5310 123° Southeast 536 617 40,000  Level FlightAware
12:13PM -30.0240 111.6380 125° Southeast 536 617 40,000  Level FlightAware
12:13PM -30.0889 111.7146 125° Southeast 509 586 40,000  Level Aus ATC (RADAR)
12:13PM -30.0710 111.7140 125° Southeast 535 616 40,000  Level FlightAware
12:14PM -30.1300 111.8110 125° Southeast 535 616 40,000 60 Level FlightAware
12:15PM -30.1896 111.9208 125° Southeast 505 581 40,100  Climbing Aus ATC (RADAR)
12:15PM -30.2040 111.9320 125° Southeast 532 612 40,000  Descending FlightAware
12:15PM -30.2472 112.0126 125° Southeast 505 581 40,100  Climbing Aus ATC (RADAR)
12:16PM -30.2570 112.0200 125° Southeast 530 610 40,000  Descending FlightAware
12:17PM -30.3382 112.1627 125° Southeast 504 580 40,100  Climbing Aus ATC (RADAR)
12:17PM -30.3380 112.1540 125° Southeast 529 609 40,000 -180 Descending FlightAware
12:17PM -30.4020 112.2590 125° Southeast 525 604 40,000 60 Level FlightAware
12:18PM -30.4509 112.3476 125° Southeast 505 581 40,100  Climbing Aus ATC (RADAR)
12:18PM -30.4650 112.3640 125° Southeast 525 604 40,000  Descending FlightAware
12:19PM -30.5343 112.4870 125° Southeast 495 570 40,100  Climbing Aus ATC (RADAR)
12:19PM -30.5340 112.4790 125° Southeast 524 603 40,000 -180 Descending FlightAware
12:20PM -30.6000 112.5880 125° Southeast 525 604 40,000 60 Level FlightAware
12:20PM -30.6283 112.6377 125° Southeast 507 583 40,100  Climbing Aus ATC (RADAR)
12:20PM -30.6490 112.6710 125° Southeast 525 604 40,000  Descending FlightAware
12:21PM -30.7154 112.7900 125° Southeast 499 574 40,100  Climbing Aus ATC (RADAR)
12:21PM -30.7150 112.7810 125° Southeast 526 605 40,000 -240 Descending FlightAware
12:22PM -30.7610 112.8580 125° Southeast 527 606 40,000 60 Level FlightAware
12:22PM -30.8085 112.9424 125° Southeast 511 588 40,100  Climbing Aus ATC (RADAR)
12:22PM -30.8270 112.9700 125° Southeast 527 606 40,000  Descending FlightAware
12:23PM -30.8908 113.0828 125° Southeast 507 583 40,100  Climbing Aus ATC (RADAR)
12:23PM -30.8920 113.0790 125° Southeast 526 605 40,000 -180 Descending FlightAware
12:24PM -30.9470 113.1730 124° Southeast 525 604 40,000 60 Level FlightAware
12:24PM -30.9894 113.2459 124° Southeast 504 580 40,100  Climbing Aus ATC (RADAR)
12:25PM -31.0040 113.2700 124° Southeast 525 604 40,000  Descending FlightAware
12:25PM -31.0703 113.3866 124° Southeast 502 578 40,100  Climbing Aus ATC (RADAR)
12:26PM -31.0830 113.4040 124° Southeast 525 604 40,000 -120 Descending FlightAware
12:26PM -31.1430 113.5060 125° Southeast 525 604 40,000  Level FlightAware
12:27PM -31.2190 113.6370 124° Southeast 524 603 40,000  Level FlightAware
12:28PM -31.2700 113.7240 124° Southeast 524 603 40,000 60 Level FlightAware
12:28PM -31.3255 113.8218 124° Southeast 504 580 40,100  Climbing Aus ATC (RADAR)
12:28PM -31.3260 113.8210 124° Southeast 523 602 40,000 -180 Descending FlightAware
12:29PM -31.3900 113.9310 124° Southeast 526 605 40,000 60 Level FlightAware
12:29PM -31.4143 113.9750 124° Southeast 507 583 40,100  Climbing Aus ATC (RADAR)
12:30PM -31.4410 114.0190 124° Southeast 522 601 40,000 -120 Descending FlightAware
12:31PM -31.5020 114.1250 124° Southeast 527 606 40,000  Level FlightAware
12:31PM -31.5560 114.2190 124° Southeast 527 606 40,000 60 Level FlightAware
12:32PM -31.5906 114.2819 124° Southeast 506 582 40,100  Climbing Aus ATC (RADAR)
12:32PM -31.6120 114.3170 124° Southeast 528 608 40,000 -120 Descending FlightAware
12:33PM -31.6690 114.4170 124° Southeast 529 609 40,000 60 Level FlightAware
12:33PM -31.7000 114.4720 124° Southeast 513 590 40,100  Climbing Aus ATC (RADAR)
12:33PM -31.7280 114.5210 124° Southeast 529 609 40,000 120 Descending FlightAware
12:34PM -31.7681 114.5909 124° Southeast 511 588 40,200  Climbing Aus ATC (RADAR)
12:34PM -31.7840 114.6190 124° Southeast 530 610 40,000 -240 Descending FlightAware
12:35PM -31.8440 114.7250 124° Southeast 530 610 40,000  Level FlightAware
12:35PM -31.8970 114.8180 124° Southeast 531 611 40,000 120 Level FlightAware
12:36PM -31.9585 114.9265 124° Southeast 515 593 40,200  Climbing Aus ATC (RADAR)
12:36PM -31.9580 114.9250 124° Southeast 532 612 40,000 -300 Descending FlightAware
12:37PM -32.0120 115.0250 123° Southeast 530 610 40,000 180 Level FlightAware
12:37PM -32.0355 115.0744 123° Southeast 520 598 40,200  Climbing Aus ATC (RADAR)
12:38PM -32.0590 115.1270 123° Southeast 534 615 40,000  Descending FlightAware
12:38PM -32.1134 115.2395 123° Southeast 518 596 40,200  Climbing Aus ATC (RADAR)
12:38PM -32.1130 115.2410 123° Southeast 534 615 40,000 -300 Descending FlightAware
12:39PM -32.1610 115.3430 119° Southeast 533 613 40,000 180 Level FlightAware
12:39PM -32.1967 115.4175 119° Southeast 516 594 40,200  Climbing Aus ATC (RADAR)
12:40PM -32.2030 115.4330 119° Southeast 533 613 40,000  Descending FlightAware
12:40PM -32.2683 115.5703 119° Southeast 519 597 40,200  Climbing Aus ATC (RADAR)
12:40PM -32.2620 115.5590 119° Southeast 533 613 40,000 -300 Descending FlightAware
12:41PM -32.3080 115.6570 119° Southeast 533 613 40,000 180 Level FlightAware
12:41PM -32.3396 115.7229 119° Southeast 516 594 40,200  Climbing Aus ATC (RADAR)
12:42PM -32.3450 115.7370 119° Southeast 534 615 40,000 -240 Descending FlightAware
12:42PM -32.3980 115.8510 119° Southeast 533 613 40,000 180 Level FlightAware
12:43PM -32.4224 115.9028 119° Southeast 519 597 40,200  Climbing Aus ATC (RADAR)
12:43PM -32.4450 115.9550 119° Southeast 534 615 40,000  Descending FlightAware
12:44PM -32.4989 116.0699 119° Southeast 520 598 40,200  Climbing Aus ATC (RADAR)
12:44PM -32.4910 116.0540 119° Southeast 534 615 40,000 -300 Descending FlightAware
12:44PM -32.5440 116.1700 118° Southeast 534 615 40,000 180 Level FlightAware
12:45PM -32.5753 116.2367 118° Southeast 519 597 40,200  Climbing Aus ATC (RADAR)
12:45PM -32.5920 116.2750 118° Southeast 530 610 40,000 -240 Descending FlightAware
12:46PM -32.6450 116.3910 119° Southeast 527 606 40,000  Level FlightAware
12:46PM -32.6850 116.4800 118° Southeast 526 605 40,000 180 Level FlightAware
12:47PM -32.7267 116.5694 118° Southeast 518 596 40,200  Climbing Aus ATC (RADAR)
12:47PM -32.7310 116.5810 118° Southeast 526 605 40,000 -240 Descending FlightAware
12:48PM -32.7850 116.7000 118° Southeast 527 606 40,000 120 Level FlightAware
12:48PM -32.8191 116.7744 118° Southeast 514 592 40,200  Climbing Aus ATC (RADAR)
12:48PM -32.8330 116.8060 118° Southeast 527 606 40,000  Descending FlightAware
12:49PM -32.8650 116.8773 118° Southeast 516 594 40,200  Climbing Aus ATC (RADAR)
12:49PM -32.8800 116.9110 118° Southeast 525 604 40,000 -240 Descending FlightAware
12:50PM -32.9320 117.0280 118° Southeast 523 602 40,000  Level FlightAware
12:50PM -32.9680 117.1070 119° Southeast 523 602 40,000 120 Level FlightAware
12:51PM -33.0251 117.2353 119° Southeast 512 589 40,200  Climbing Aus ATC (RADAR)
12:51PM -33.0280 117.2430 119° Southeast 524 603 40,000 -300 Descending FlightAware
12:52PM -33.0750 117.3480 118° Southeast 526 605 40,000  Level FlightAware
12:53PM -33.1200 117.4510 118° Southeast 525 604 40,000 120 Level FlightAware
12:53PM -33.1561 117.5292 118° Southeast 514 592 40,200  Climbing Aus ATC (RADAR)
12:53PM -33.1710 117.5650 118° Southeast 526 605 40,000 -240 Descending FlightAware
12:54PM -33.2160 117.6670 118° Southeast 526 605 40,000 180 Level FlightAware
12:54PM -33.2457 117.7351 118° Southeast 514 592 40,200  Climbing Aus ATC (RADAR)
12:55PM -33.2680 117.7860 118° Southeast 528 608 40,000  Descending FlightAware
12:55PM -33.3140 117.8898 118° Southeast 516 594 40,200  Climbing Aus ATC (RADAR)
12:55PM -33.3120 117.8880 118° Southeast 530 610 40,000 -300 Descending FlightAware
12:56PM -33.3580 117.9930 118° Southeast 529 609 40,000 180 Level FlightAware
12:57PM -33.3879 118.0579 118° Southeast 520 598 40,200 120 Climbing Aus ATC (RADAR)
12:58PM -33.4597 118.2283 117° Southeast 521 600 40,200 -180 Level Aus ATC (RADAR)
12:58PM -33.4680 118.2450 117° Southeast 532 612 40,000 -240 Descending FlightAware
12:58PM -33.5110 118.3460 117° Southeast 530 610 40,000 180 Level FlightAware
12:59PM -33.5392 118.4098 117° Southeast 517 595 40,200  Climbing Aus ATC (RADAR)
12:59PM -33.5520 118.4420 117° Southeast 529 609 40,000 -300 Descending FlightAware
01:00PM -33.5860 118.5200 118° Southeast 530 610 40,000  Level FlightAware
01:00PM -33.6360 118.6360 117° Southeast 530 610 40,000 120 Level FlightAware
01:01PM -33.6816 118.7515 117° Southeast 522 601 40,200  Climbing Aus ATC (RADAR)
01:01PM -33.6820 118.7450 117° Southeast 530 610 40,000 -300 Descending FlightAware
01:02PM -33.7270 118.8500 117° Southeast 530 610 40,000  Level FlightAware
01:02PM -33.7630 118.9380 116° Southeast 530 610 40,000 60 Level FlightAware
01:03PM -33.8164 119.0630 116° Southeast 518 596 40,100  Climbing Aus ATC (RADAR)
01:03PM -33.8140 119.0570 116° Southeast 40,000 -120 Descending FlightAware
01:04PM -33.8480 119.1470 114° Southeast 530 610 40,000  Level FlightAware
01:04PM -33.8770 119.2200 116° Southeast 530 610 40,000 60 Level FlightAware
01:05PM -33.9610 119.4018 116° Southeast 519 597 40,100  Climbing Aus ATC (RADAR)
01:05PM -33.9190 119.3240 116° Southeast 530 610 40,000  Descending FlightAware
01:07PM -34.0909 119.7361 116° Southeast 523 602 40,100  Climbing Aus ATC (RADAR)
01:08PM -34.1397 119.8535 117° Southeast 521 600 40,100  Level Aus ATC (RADAR)
01:11PM -34.3271 120.4179 108° East 39,000  Descending Aus ATC (Calculated)
01:13PM -34.3739 120.6071 107° East  Level Estimated
01:14PM -34.4116 120.7607 107° East  Level Estimated
01:15PM -34.4491 120.9145 107° East  Level Estimated
01:16PM -34.4865 121.0683 106° East  Level Estimated
01:16PM -34.5984 121.2535 108° East 39,000  Level Aus ATC (Calculated)
01:18PM -34.6490 121.4679 106° East  Level Estimated
01:18PM -34.7145 121.6184 107° East 39,000  Level Aus ATC (Calculated)
01:19PM -34.6862 121.6270 106° East  Level Estimated
01:20PM -34.7538 121.7883 106° East  Level Estimated
01:21PM -34.7905 121.9478 106° East  Level Estimated
01:21PM -34.8627 122.0909 107° East 39,000  Level Aus ATC (Calculated)
01:23PM -34.9103 122.3026 105° East  Level Estimated
01:23PM -34.9746 122.4527 107° East 39,000  Level Aus ATC (Calculated)
01:25PM -35.0170 122.6451 105° East  Level Estimated
01:26PM -35.0520 122.8056 105° East  Level Estimated
01:26PM -35.1084 122.8912 106° East 39,000  Level Aus ATC (Calculated)
01:27PM -35.0868 122.9662 105° East  Level Estimated
01:28PM -35.1526 123.0976 105° East  Level Estimated
01:28PM -35.1954 123.1797 106° East 39,000  Level Aus ATC (Calculated)
01:29PM -35.1868 123.2587 105° East  Level Estimated
01:30PM -35.2338 123.3624 104° East  Level Estimated
01:31PM -35.2674 123.5238 104° East  Level Estimated
01:31PM -35.3513 123.7042 105° East 39,000  Level Aus ATC (Calculated)
01:33PM -35.3939 123.9146 104° East  Level Estimated
01:34PM -35.4265 124.0766 104° East  Level Estimated
01:35PM -35.4589 124.2388 104° East  Level Estimated
01:35PM -35.5176 124.2747 105° East 39,000  Level Aus ATC (Calculated)
01:35PM -35.5485 124.3819 105° East 39,000  Level Aus ATC (Calculated)
01:36PM -35.5493 124.4372 104° East  Level Estimated
01:36PM -35.6044 124.5769 105° East 39,000  Level Aus ATC (Calculated)
01:37PM -35.5936 124.6154 103° East  Level Estimated
01:37PM -35.6548 124.7540 104° East 39,000  Level Aus ATC (Calculated)
01:38PM -35.6448 124.7889 103° East  Level Estimated
01:39PM -35.6993 124.9908 103° East  Level Estimated
01:39PM -35.7641 125.1422 104° East 39,000  Level Aus ATC (Calculated)
01:40PM -35.7298 125.1543 103° East  Level Estimated
01:41PM -35.8035 125.3578 103° East  Level Estimated
01:41PM -35.8533 125.4633 103° East 39,000  Level Aus ATC (Calculated)
01:42PM -35.8331 125.5218 103° East  Level Estimated
01:43PM -35.8956 125.7013 102° East  Level Estimated
01:44PM -35.9246 125.8656 102° East  Level Estimated
01:44PM -35.9818 125.9328 103° East 39,000  Level Aus ATC (Calculated)
01:45PM -36.0179 126.0925 103° East 41,000  Climbing Aus ATC (Calculated)
01:47PM -36.0639 126.3642 102° East  Level Estimated
01:47PM -36.0712 126.3703 103° East 41,000  Level Aus ATC (Calculated)
01:48PM -36.0914 126.5290 102° East  Level Estimated
01:49PM -36.1210 126.6699 102° East  Level Estimated
01:49PM -36.1413 126.7413 102° East 41,000  Level Aus ATC (Calculated)
01:50PM -36.1481 126.8349 102° East  Level Estimated
01:50PM -36.1759 126.9271 102° East 41,000  Level Aus ATC (Calculated)
01:51PM -36.1750 126.9483 101° East  Level Estimated
01:52PM -36.2114 127.1478 101° East  Level Estimated
01:52PM -36.2443 127.2991 102° East 41,000  Level Aus ATC (Calculated)
01:53PM -36.2370 127.3088 101° East  Level Estimated
01:54PM -36.2768 127.5063 101° East  Level Estimated
01:55PM -36.3026 127.6722 101° East  Level Estimated
01:56PM -36.3281 127.8382 101° East  Level Estimated
01:57PM -36.3534 128.0043 101° East  Level Estimated
01:58PM -36.3785 128.1705 101° East  Level Estimated
01:59PM -36.4033 128.3369 101° East  Level Estimated
02:00PM -36.4279 128.5033 100° East  Level Estimated
02:01PM -36.4523 128.6698 100° East  Level Estimated
02:02PM -36.4765 128.8365 100° East  Level Estimated
02:02PM -36.5062 128.7933 101° East 41,000  Level Aus ATC (Calculated)
02:02PM -36.5219 128.8870 101° East 41,000  Level Aus ATC (Calculated)
02:04PM -36.5593 129.1542 100° East  Level Estimated
02:05PM -36.5824 129.3213 100° East  Level Estimated
02:06PM -36.6053 129.4885 100° East  Level Estimated
02:07PM -36.6279 129.6558 100° East  Level Estimated
02:08PM -36.6503 129.8232 100° East  Level Estimated
02:09PM -36.6724 129.9907 99° East  Level Estimated
02:10PM -36.6943 130.1583 99° East  Level Estimated
02:11PM -36.7160 130.3260 99° East  Level Estimated
02:12PM -36.7375 130.4938 99° East  Level Estimated
02:13PM -36.7587 130.6617 99° East  Level Estimated
02:14PM -36.7796 130.8297 99° East  Level Estimated
02:15PM -36.8004 130.9977 99° East  Level Estimated
02:16PM -36.8209 131.1659 99° East  Level Estimated
02:17PM -36.8411 131.3341 99° East  Level Estimated
02:18PM -36.8612 131.5024 99° East  Level Estimated
02:19PM -36.8810 131.6709 98° East  Level Estimated
02:20PM -36.9005 131.8394 98° East  Level Estimated
02:20PM -36.9867 131.9051 98° East 41,000  Level Aus ATC (Calculated)
02:21PM -36.9198 132.0079 98° East  Level Estimated
02:21PM -37.0000 132.0000 97° East 41,000  Level Aus ATC (Calculated)
02:22PM -37.0112 132.1333 98° East  Level Estimated
02:23PM -37.0331 132.3119 98° East  Level Estimated
02:24PM -37.0507 132.4813 97° East  Level Estimated
02:25PM -37.0681 132.6508 97° East  Level Estimated
02:26PM -37.0852 132.8204 97° East  Level Estimated
02:27PM -37.1021 132.9900 97° East  Level Estimated
02:28PM -37.1188 133.1597 97° East  Level Estimated
02:29PM -37.1352 133.3295 97° East  Level Estimated
02:30PM -37.1513 133.4993 97° East  Level Estimated
02:31PM -37.1673 133.6693 97° East  Level Estimated
02:32PM -37.1829 133.8392 97° East  Level Estimated
02:32PM -37.1704 133.7717 96° East 41,000  Level Aus ATC (Calculated)
02:34PM -37.1989 134.0835 97° East  Level Estimated
02:34PM -37.2155 134.2960 97° East 476 548 41,000  Level Aus ATC (RADAR)
02:36PM -37.2419 134.6470 96° East 477 549 41,000  Level Aus ATC (RADAR)
02:38PM -37.2589 134.8273 97° East 483 556 41,000  Level Aus ATC (RADAR)
02:39PM -37.2733 135.0072 96° East 482 555 41,000  Level Aus ATC (RADAR)
02:40PM -37.2865 135.1862 95° East 479 551 41,000  Level Aus ATC (RADAR)
02:41PM -37.2989 135.3529 95° East 482 555 41,000  Level Aus ATC (RADAR)
02:42PM -37.3140 135.5484 96° East 485 558 41,000  Level Aus ATC (RADAR)
02:43PM -37.3261 135.7153 95° East 483 556 41,000  Level Aus ATC (RADAR)
02:44PM -37.3449 135.9808 95° East 483 556 41,000  Level Aus ATC (RADAR)
02:45PM -37.3564 136.1463 95° East 481 554 41,000  Level Aus ATC (RADAR)
02:46PM -37.3687 136.3264 95° East 481 554 41,000  Level Aus ATC (RADAR)
02:48PM -37.3814 136.5196 95° East 477 549 41,000  Level Aus ATC (RADAR)
02:49PM -37.3920 136.6837 95° East 474 545 41,000 60 Level Aus ATC (RADAR)
02:50PM -37.4019 136.8474 94° East 474 545 41,200 60 Climbing Aus ATC (RADAR)
02:51PM -37.4122 137.0107 95° East 470 541 41,200  Level Aus ATC (RADAR)
02:52PM -37.4227 137.1862 94° East 466 536 41,200  Level Aus ATC (RADAR)
02:53PM -37.4323 137.3460 94° East 461 531 41,200  Level Aus ATC (RADAR)
02:54PM -37.4432 137.5331 94° East 461 531 41,200  Level Aus ATC (RADAR)
02:55PM -37.4519 137.6909 94° East 454 522 41,200  Level Aus ATC (RADAR)
02:56PM -37.4615 137.8644 94° East 460 529 41,200  Level Aus ATC (RADAR)
02:57PM -37.4702 138.0260 94° East 466 536 41,200  Level Aus ATC (RADAR)
02:58PM -37.4782 138.1862 94° East 462 532 41,200  Level Aus ATC (RADAR)
02:59PM -37.4875 138.3520 94° East 477 549 41,200  Level Aus ATC (RADAR)
03:01PM -37.5201 138.6223 99° East 473 544 41,200  Level Aus ATC (RADAR)
03:02PM -37.5407 138.7952 99° East 463 533 41,200  Level Aus ATC (RADAR)
03:03PM -37.5590 138.9579 98° East 467 537 41,200  Level Aus ATC (RADAR)
03:04PM -37.5772 139.1201 98° East 468 539 41,200  Level Aus ATC (RADAR)
03:05PM -37.5969 139.2948 98° East 464 534 41,200  Level Aus ATC (RADAR)
03:06PM -37.6159 139.4707 98° East 467 537 41,200  Level Aus ATC (RADAR)
03:07PM -37.6349 139.6443 98° East 464 534 41,200  Level Aus ATC (RADAR)
03:08PM -37.6519 139.8046 98° East 462 532 41,200  Level Aus ATC (RADAR)
03:09PM -37.6717 139.9932 98° East 465 535 41,200  Level Aus ATC (RADAR)
03:10PM -37.6885 140.1546 98° East 465 535 41,200 -180 Level Aus ATC (RADAR)
03:10PM -37.6900 140.1770 98° East 464 534 41,000 -300 Descending FlightAware
03:11PM -37.7000 140.2700 98° East 465 535 41,000 180 Level FlightAware
03:11PM -37.7065 140.3293 98° East 464 534 41,200  Climbing Aus ATC (RADAR)
03:11PM -37.7090 140.3660 98° East 466 536 41,000  Descending FlightAware
03:12PM -37.7231 140.4916 98° East 467 537 41,200  Climbing Aus ATC (RADAR)
03:12PM -37.7220 140.4870 98° East 469 540 41,000 -300 Descending FlightAware
03:13PM -37.7330 140.5960 97° East 471 542 41,000 180 Level FlightAware
03:13PM -37.7403 140.6689 97° East 471 542 41,200  Climbing Aus ATC (RADAR)
03:14PM -37.7430 140.7040 97° East 472 543 41,000 -240 Descending FlightAware
03:14PM -37.7530 140.8290 96° East 473 544 41,000 -540 Level FlightAware
03:15PM -37.7570 140.9390 93° East 459 528 40,300 -1,020 Descending FlightAware
03:16PM -37.7610 141.0430 93° East 446 513 39,700 -720 Descending FlightAware
03:16PM -37.7664 141.1494 93° East 439 505 39,400 -960 Descending Aus ATC (RADAR)
03:16PM -37.7660 141.1620 93° East 444 511 39,000 -1,440 Descending FlightAware
03:17PM -37.7700 141.2630 93° East 446 513 38,300 -780 Descending FlightAware
03:17PM -37.7727 141.3182 93° East 444 511 38,300 -960 Level Aus ATC (RADAR)
03:17PM -37.7720 141.3270 93° East 449 517 37,900 -1,320 Descending FlightAware
03:18PM -37.7760 141.4330 93° East 448 516 37,300 -660 Descending FlightAware
03:18PM -37.7792 141.4879 93° East 446 513 37,300 -1,080 Level Aus ATC (RADAR)
03:19PM -37.7800 141.5510 93° East 453 521 36,500 -1,020 Descending FlightAware
03:20PM -37.7852 141.6596 93° East 450 518 36,200 -900 Descending Aus ATC (RADAR)
03:20PM -37.7840 141.6580 93° East 456 525 35,900 -1,440 Descending FlightAware
03:20PM -37.7880 141.7640 93° East 459 528 35,200 -780 Descending FlightAware
03:21PM -37.7915 141.8723 93° East 452 520 34,900 -900 Descending Aus ATC (RADAR)
03:21PM -37.7910 141.8710 93° East 454 522 34,600 -1,440 Descending FlightAware
03:22PM -37.7950 141.9890 92° East 454 522 33,800 -1,320 Descending FlightAware
03:22PM -37.7980 142.0980 92° East 469 540 32,800 -1,440 Descending FlightAware
03:23PM -37.8013 142.1665 92° East 461 531 32,300 -1,800 Descending Aus ATC (RADAR)
03:23PM -37.8010 142.2050 92° East 462 532 31,600 -2,040 Descending FlightAware
03:24PM -37.8040 142.3110 92° East 457 526 30,400 -1,680 Descending FlightAware
03:24PM -37.8063 142.3932 92° East 448 516 29,700 -2,040 Descending Aus ATC (RADAR)
03:24PM -37.8070 142.3920 92° East 452 520 29,400 -2,100 Descending FlightAware
03:25PM -37.8100 142.5100 92° East 450 518 28,100 -1,800 Descending FlightAware
03:26PM -37.8120 142.6160 91° East 449 517 26,900 -1,620 Descending FlightAware
03:26PM -37.8146 142.7072 91° East 441 507 26,200 -1,740 Descending Aus ATC (RADAR)
03:26PM -37.8150 142.7290 91° East 443 510 25,600 -1,980 Descending FlightAware
03:27PM -37.8180 142.8350 92° East 435 501 24,500 -1,740 Descending FlightAware
03:28PM -37.8210 142.9480 92° East 425 489 23,200 -1,500 Descending FlightAware
03:28PM -37.8221 143.0215 92° East 416 479 22,700 -1,680 Descending Aus ATC (RADAR)
03:28PM -37.8230 143.0470 92° East 416 479 22,100 -1,980 Descending FlightAware
03:29PM -37.8250 143.1440 92° East 420 483 21,000 -1,680 Descending FlightAware
03:30PM -37.8270 143.2530 91° East 412 474 19,800 -1,680 Descending FlightAware
03:30PM -37.8290 143.3470 92° East 405 466 18,700 -1,620 Descending FlightAware
03:31PM -37.8310 143.4420 92° East 405 466 17,700 -1,560 Descending FlightAware
03:32PM -37.8320 143.5140 91° East 405 466 16,900 -1,500 Descending FlightAware
03:32PM -37.8340 143.5950 92° East 401 461 16,100 -1,620 Descending FlightAware
03:33PM -37.8350 143.7010 91° East 396 456 14,800 -1,680 Descending FlightAware
03:34PM -37.8370 143.7830 92° East 396 456 13,900 -1,440 Descending FlightAware
03:34PM -37.8380 143.8603 92° East 387 445 13,200 -1,620 Descending Aus ATC (RADAR)
03:34PM -37.8380 143.8850 92° East 386 444 12,700 -1,920 Descending FlightAware
03:35PM -37.8390 143.9620 91° East 375 432 11,700 -1,800 Descending FlightAware
03:36PM -37.8290 144.0670 83° East 365 420 10,200 -1,920 Descending FlightAware
03:36PM -37.8230 144.1220 82° East 364 419 9,300 -1,560 Descending FlightAware
03:37PM -37.8175 144.1720 82° East 357 411 9,000 -1,200 Descending Aus ATC (RADAR)
03:37PM -37.8160 144.1840 82° East 349 402 8,700 -600 Descending FlightAware
03:37PM -37.8100 144.2340 81° East 323 372 8,700 -240 Level FlightAware
03:38PM -37.8042 144.2856 81° East 316 364 8,500 -1,200 Descending Aus ATC (RADAR)
03:38PM -37.8040 144.2870 81° East 313 360 8,100 -2,160 Descending FlightAware
03:38PM -37.7990 144.3330 82° East 312 359 7,500 -1,140 Descending FlightAware
03:38PM -37.7930 144.3800 81° East 299 344 7,100 -720 Descending FlightAware
03:39PM -37.7870 144.4290 81° East 277 319 6,800 -600 Descending FlightAware
03:39PM -37.7870 144.4690 90° East 258 297 6,600 -180 Descending FlightAware
03:40PM -37.7916 144.5004 90° East 252 290 6,700 -720 Climbing Aus ATC (RADAR)
03:40PM -37.7920 144.5050 90° East 237 273 6,300 -2,040 Descending FlightAware
03:40PM -37.7970 144.5440 99° East 229 264 5,400 -1,680 Descending FlightAware
03:41PM -37.8000 144.5710 99° East 232 267 4,900 -960 Descending FlightAware
03:41PM -37.8020 144.5868 99° East 226 260 5,000 -1,200 Climbing Aus ATC (RADAR)
03:41PM -37.8060 144.6180 99° East 233 268 4,200 -1,140 Descending FlightAware
03:42PM -37.8130 144.6735 99° East 226 260 3,800 -1,080 Descending Aus ATC (RADAR)
03:42PM -37.8130 144.6720 99° East 226 260 3,500 -1,320 Descending FlightAware
03:42PM -37.8150 144.6910 98° East 218 251 3,400 -480 Descending FlightAware
03:43PM -37.8190 144.7210 100° East 202 232 3,200  Descending FlightAware
03:43PM -37.8287 144.7488 100° East 197 227 3,400 -480 Climbing Aus ATC (RADAR)
03:43PM -37.8280 144.7470 100° East 190 219 3,000 -1,260 Descending FlightAware
03:43PM -37.8410 144.7770 119° Southeast 189 217 2,700 -420 Descending FlightAware
03:44PM -37.8440 144.7900 106° East 187 215 2,700  Level FlightAware
03:44PM -37.8400 144.8180 80° East 172 198 2,700  Level FlightAware
03:45PM -37.8370 144.8480 83° East 172 198 2,700  Level FlightAware
03:45PM -37.8310 144.8610 60° Northeast 169 194 2,700  Level FlightAware
03:45PM -37.8240 144.8640 19° North 167 192 2,700 -240 Level FlightAware
03:45PM -37.8120 144.8650 North 170 196 2,600 -720 Descending FlightAware
03:46PM -37.7910 144.8610 351° North 158 182 2,200 -840 Descending FlightAware
03:46PM -37.7770 144.8580 350° North 149 171 1,900 -600 Descending FlightAware
03:47PM -37.7523 144.8532 350° North 141 162 1,700 -900 Descending Aus ATC (RADAR)
03:47PM -37.7520 144.8530 350° North 130 150 1,400 -1,500 Descending FlightAware
03:47PM -37.7390 144.8510 353° North 129 148 1,100 -900 Descending FlightAware
03:47PM -37.7300 144.8490 350° North 129 148 900 -180 Descending FlightAware
03:48PM -37.7146 144.8462 350° North 136 157 1,000 -600 Climbing Aus ATC (RADAR)
03:48PM -37.7110 144.8460 350° North 132 152 600 -1,200 Descending FlightAware
03:48PM -37.6960 144.8430 351° North 128 147 300 -360 Descending FlightAware
03:49PM -37.6800 144.8400 351° North 122 140  Descending FlightAware
03:49PM -37.6765 144.8392 351° North 126 145 300  Climbing Aus ATC (RADAR)